Current | Forecast
Updated: 8:30 PM +05 on January 22, 2018
Observed at Hanty-Mansijsk, Russia
Temperature -34°C
Windchill -42°C
Humidity 68%
Dew Point -38°C
Wind ESE at 7 km/h
Pressure 1062 hPa (Steady)
Conditions Clear
Visibility -
UV N/A
Clouds
Yesterday's Maximum -29°C
Yesterday's Minimum -38°C approx.
Yesterday's Heating Degree Days 93 approx.
Sunrise9:03 AM +05
Sunset4:04 PM +05
Moon Rise10:46 AM +05
Moon Set10:30 PM +05
Moon PhaseMoon Phase
Waxing Crescent
Raw METARMETAR USHH 221530Z 11002MPS CAVOK M34/M38 Q1062 R06/010060 TEMPO 1000 BR FU SCT003 RMK QFE793


Monday
. High: 62° F.
Tuesday
. High: 71° F.
Wednesday
. High: 68° F.
Thursday
. High: 66° F.
Friday
. High: 50° F.
Saturday
. High: 48° F.
Sunday
. High: 60° F.
Monday
. High: 60° F.

Units: English | Metric

Find the Weather for any City, State or Zipcode, or Country:

U.S. State List | Severe Weather | Tropical Storms | Ski Conditions
United States | Canada | Central America | South America | Asia | Europe | Australia | Africa | Islands

Weather Underground

© Copyright 2018
The Weather Company, LLC